createdAt,value
2017-07-07T00:01:15.130Z,1008.09
2017-07-07T00:06:12.192Z,1007.93
2017-07-07T00:11:09.373Z,1007.88
2017-07-07T00:16:05.071Z,1007.77
2017-07-07T00:21:00.936Z,1007.78
2017-07-07T00:25:56.916Z,1007.50
2017-07-07T00:30:53.157Z,1007.27
2017-07-07T00:35:50.303Z,1007.32
2017-07-07T00:40:46.301Z,1007.33
2017-07-07T00:45:43.500Z,1007.29
2017-07-07T00:50:39.811Z,1007.09
2017-07-07T00:55:35.392Z,1006.96
2017-07-07T01:00:32.319Z,1007.05
2017-07-07T01:05:28.028Z,1007.03
2017-07-07T01:10:23.785Z,1007.02
2017-07-07T01:15:20.089Z,1007.15
2017-07-07T01:20:16.923Z,1007.16
2017-07-07T01:25:12.503Z,1007.28
2017-07-07T01:30:09.320Z,1007.30
2017-07-07T01:35:04.653Z,1007.30
2017-07-07T01:40:00.607Z,1007.36
2017-07-07T01:44:56.448Z,1007.50
2017-07-07T01:49:53.354Z,1007.71
2017-07-07T01:54:48.653Z,1007.77
2017-07-07T01:59:46.448Z,1007.54
2017-07-07T02:04:42.001Z,1007.39
2017-07-07T02:09:38.030Z,1007.21
2017-07-07T02:14:33.883Z,1006.90
2017-07-07T02:19:30.737Z,1006.71
2017-07-07T02:24:26.165Z,1006.94
2017-07-07T02:29:23.017Z,1007.36
2017-07-07T02:34:18.877Z,1007.38
2017-07-07T02:39:14.836Z,1007.31
2017-07-07T02:44:10.820Z,1007.16
2017-07-07T02:49:07.333Z,1007.01
2017-07-07T02:54:05.011Z,1007.21
2017-07-07T02:59:00.672Z,1007.44
2017-07-07T03:03:56.538Z,1007.54
2017-07-07T03:08:54.100Z,1007.52
2017-07-07T03:13:50.831Z,1007.63
2017-07-07T03:18:47.469Z,1007.56
2017-07-07T03:23:43.129Z,1007.51
2017-07-07T03:28:38.937Z,1007.53
2017-07-07T03:33:35.385Z,1007.58
2017-07-07T03:38:31.322Z,1007.33
2017-07-07T03:43:27.123Z,1007.07
2017-07-07T03:48:24.382Z,1006.39
2017-07-07T03:53:20.350Z,1005.32
2017-07-07T03:58:16.520Z,1005.93
2017-07-07T04:03:12.276Z,1005.86
2017-07-07T04:08:08.436Z,1006.15
2017-07-07T04:13:04.092Z,1006.53
2017-07-07T04:18:00.005Z,1006.31
2017-07-07T04:22:56.115Z,1006.42
2017-07-07T04:27:51.602Z,1006.45
2017-07-07T04:32:47.763Z,1006.39
2017-07-07T04:37:43.908Z,1006.40
2017-07-07T04:42:40.040Z,1006.39
2017-07-07T04:47:36.554Z,1006.41
2017-07-07T04:52:34.035Z,1006.55
2017-07-07T04:57:31.740Z,1006.61
2017-07-07T05:02:28.248Z,1006.67
2017-07-07T05:07:24.825Z,1006.76
2017-07-07T05:12:20.870Z,1006.79
2017-07-07T05:17:17.410Z,1006.96
2017-07-07T05:22:13.756Z,1007.04
2017-07-07T05:27:10.455Z,1007.01
2017-07-07T05:32:07.090Z,1007.01
2017-07-07T05:37:04.205Z,1007.12
2017-07-07T05:41:59.764Z,1007.08
2017-07-07T05:46:55.719Z,1007.12
2017-07-07T05:51:51.880Z,1007.10
2017-07-07T05:56:47.935Z,1007.07
2017-07-07T06:01:44.833Z,1007.17
2017-07-07T06:06:41.350Z,1007.17
2017-07-07T06:11:36.899Z,1007.27
2017-07-07T06:16:34.056Z,1007.22
2017-07-07T06:21:29.756Z,1007.17
2017-07-07T06:26:25.861Z,1007.11
2017-07-07T06:31:21.724Z,1007.19
2017-07-07T06:36:18.645Z,1007.07
2017-07-07T06:41:15.400Z,1007.22
2017-07-07T06:46:10.767Z,1007.16
2017-07-07T06:51:07.969Z,1007.08
2017-07-07T06:56:03.856Z,1007.12
2017-07-07T07:00:59.890Z,1007.08
2017-07-07T07:05:55.806Z,1007.06
2017-07-07T07:10:51.620Z,1007.08
2017-07-07T07:15:47.316Z,1007.11
2017-07-07T07:20:44.162Z,1007.21
2017-07-07T07:25:41.465Z,1007.14
2017-07-07T07:30:37.755Z,1007.22
2017-07-07T07:35:33.982Z,1007.42
2017-07-07T07:40:31.261Z,1007.46
2017-07-07T07:45:28.109Z,1007.35
2017-07-07T07:50:24.087Z,1007.45
2017-07-07T07:55:20.693Z,1007.54
2017-07-07T08:00:19.302Z,1007.54
2017-07-07T08:05:18.493Z,1007.71
2017-07-07T08:10:16.595Z,1007.50
2017-07-07T08:15:13.944Z,1007.42
2017-07-07T08:20:12.035Z,1007.40
2017-07-07T08:25:08.584Z,1007.26
2017-07-07T08:30:06.519Z,1007.33
2017-07-07T08:35:02.740Z,1007.39
2017-07-07T08:39:59.149Z,1007.22
2017-07-07T08:44:55.885Z,1007.33
2017-07-07T08:49:52.646Z,1007.29
2017-07-07T08:54:49.428Z,1007.32
2017-07-07T08:59:45.729Z,1007.29
2017-07-07T09:04:41.675Z,1007.23
2017-07-07T09:09:38.633Z,1007.24
2017-07-07T09:14:35.073Z,1007.38
2017-07-07T09:19:31.409Z,1007.31
2017-07-07T09:24:29.876Z,1007.29
2017-07-07T09:29:24.931Z,1007.36
2017-07-07T09:34:19.362Z,1007.33
2017-07-07T09:39:15.505Z,1007.36
2017-07-07T09:44:11.900Z,1007.28
2017-07-07T09:49:08.804Z,1007.45
2017-07-07T09:54:04.753Z,1007.49
2017-07-07T09:59:01.959Z,1007.40
2017-07-07T10:03:58.883Z,1007.27
2017-07-07T10:08:53.313Z,1007.26
2017-07-07T10:13:47.353Z,1007.24
2017-07-07T10:18:44.726Z,1007.27
2017-07-07T10:23:40.315Z,1007.19
2017-07-07T10:28:34.654Z,1007.28
2017-07-07T10:33:31.225Z,1007.32
2017-07-07T10:38:26.627Z,1007.38
2017-07-07T10:43:24.829Z,1007.28
2017-07-07T10:48:21.438Z,1007.38
2017-07-07T10:53:19.515Z,1007.16
2017-07-07T10:58:15.416Z,1007.03
2017-07-07T11:03:12.715Z,1007.28
2017-07-07T11:08:09.936Z,1007.19
2017-07-07T11:13:07.868Z,1007.18
2017-07-07T11:18:02.828Z,1007.18
2017-07-07T11:22:58.271Z,1007.33
2017-07-07T11:27:55.850Z,1007.22
2017-07-07T11:32:51.862Z,1007.31
2017-07-07T11:37:50.495Z,1007.41
2017-07-07T11:42:48.005Z,1007.31
2017-07-07T11:47:44.062Z,1007.26
2017-07-07T11:52:41.892Z,1007.35
2017-07-07T11:57:36.183Z,1007.19
2017-07-07T12:02:29.412Z,1007.20
2017-07-07T12:07:28.782Z,1007.35
2017-07-07T12:12:26.956Z,1007.32
2017-07-07T12:17:20.628Z,1007.24
2017-07-07T12:22:13.298Z,1007.24
2017-07-07T12:27:09.437Z,1007.37
2017-07-07T12:32:06.816Z,1007.25
2017-07-07T12:37:03.565Z,1007.41
2017-07-07T12:41:59.220Z,1007.39
2017-07-07T12:46:54.782Z,1007.31
2017-07-07T12:51:49.737Z,1007.45
2017-07-07T12:56:46.370Z,1007.48
2017-07-07T13:01:41.765Z,1007.43
2017-07-07T13:06:39.523Z,1007.31
2017-07-07T13:11:37.406Z,1007.36
2017-07-07T13:16:35.535Z,1007.46
2017-07-07T13:21:30.254Z,1007.42
2017-07-07T13:26:25.206Z,1007.39
2017-07-07T13:31:22.276Z,1007.49
2017-07-07T13:36:18.239Z,1007.51
2017-07-07T13:41:14.246Z,1007.48
2017-07-07T13:46:11.072Z,1007.36
2017-07-07T13:51:06.432Z,1007.36
2017-07-07T13:56:01.300Z,1007.36
2017-07-07T14:00:58.578Z,1007.29
2017-07-07T14:05:55.605Z,1007.24
2017-07-07T14:10:52.435Z,1007.24
2017-07-07T14:15:53.481Z,1007.08
2017-07-07T14:20:49.861Z,1007.17
2017-07-07T14:25:47.095Z,1007.08
2017-07-07T14:30:42.483Z,1007.09
2017-07-07T14:35:41.057Z,1007.05
2017-07-07T14:40:37.069Z,1007.06
2017-07-07T14:45:32.977Z,1007.19
2017-07-07T14:50:28.770Z,1007.10
2017-07-07T14:55:24.435Z,1007.13
2017-07-07T15:00:21.325Z,1007.22
2017-07-07T15:05:18.061Z,1007.36
2017-07-07T15:10:13.631Z,1007.29
2017-07-07T15:15:09.462Z,1007.44
2017-07-07T15:20:05.350Z,1007.43
2017-07-07T15:25:01.184Z,1007.31
2017-07-07T15:29:57.129Z,1007.32
2017-07-07T15:34:53.459Z,1007.26
2017-07-07T15:39:50.512Z,1007.35
2017-07-07T15:44:46.328Z,1007.39
2017-07-07T15:49:43.471Z,1007.25
2017-07-07T15:54:39.195Z,1007.24
2017-07-07T15:59:36.127Z,1007.19
2017-07-07T16:04:31.542Z,1007.35
2017-07-07T16:09:27.605Z,1007.32
2017-07-07T16:14:23.639Z,1007.49
2017-07-07T16:19:19.654Z,1007.40
2017-07-07T16:24:15.415Z,1007.35
2017-07-07T16:29:12.254Z,1007.26
2017-07-07T16:34:07.842Z,1007.35
2017-07-07T16:39:04.732Z,1007.29
2017-07-07T16:44:00.322Z,1007.31
2017-07-07T16:48:57.230Z,1007.34
2017-07-07T16:53:53.858Z,1007.33
2017-07-07T16:58:50.396Z,1007.33
2017-07-07T17:03:46.023Z,1007.29
2017-07-07T17:08:42.952Z,1007.40
2017-07-07T17:13:38.676Z,1007.48
2017-07-07T17:18:34.302Z,1007.53
2017-07-07T17:23:30.090Z,1007.46
2017-07-07T17:28:27.187Z,1007.63
2017-07-07T17:33:22.922Z,1007.69
2017-07-07T17:38:19.857Z,1007.79
2017-07-07T17:43:15.309Z,1007.80
2017-07-07T17:48:11.153Z,1007.77
2017-07-07T17:53:08.275Z,1007.76
2017-07-07T17:58:03.862Z,1007.91
2017-07-07T18:02:59.902Z,1007.88
2017-07-07T18:07:55.620Z,1007.80
2017-07-07T18:12:51.516Z,1007.81
2017-07-07T18:17:47.749Z,1007.81
2017-07-07T18:22:43.691Z,1007.88
2017-07-07T18:27:39.452Z,1007.92
2017-07-07T18:32:36.602Z,1007.91
2017-07-07T18:37:32.283Z,1007.85
2017-07-07T18:42:28.088Z,1007.86
2017-07-07T18:47:24.946Z,1007.93
2017-07-07T18:52:20.785Z,1007.97
2017-07-07T18:57:17.613Z,1007.96
2017-07-07T19:02:14.219Z,1008.14
2017-07-07T19:07:09.680Z,1008.12
2017-07-07T19:12:05.649Z,1008.21
2017-07-07T19:17:01.494Z,1008.29
2017-07-07T19:21:58.385Z,1008.43
2017-07-07T19:26:55.343Z,1008.47
2017-07-07T19:31:50.921Z,1008.49
2017-07-07T19:36:46.857Z,1008.52
2017-07-07T19:41:42.871Z,1008.59
2017-07-07T19:46:38.789Z,1008.69
2017-07-07T19:51:35.625Z,1008.83
2017-07-07T19:56:32.553Z,1008.94
2017-07-07T20:01:28.192Z,1008.93
2017-07-07T20:06:24.015Z,1008.96
2017-07-07T20:11:19.699Z,1009.16
2017-07-07T20:16:15.444Z,1009.20
2017-07-07T20:21:12.331Z,1009.23
2017-07-07T20:26:08.808Z,1009.29
2017-07-07T20:31:04.822Z,1009.32
2017-07-07T20:36:00.995Z,1009.39
2017-07-07T20:40:56.802Z,1009.26
2017-07-07T20:45:52.501Z,1009.47
2017-07-07T20:50:48.657Z,1009.49
2017-07-07T20:55:44.327Z,1009.39
2017-07-07T21:00:41.472Z,1009.41
2017-07-07T21:05:37.051Z,1009.48
2017-07-07T21:10:32.821Z,1009.54
2017-07-07T21:15:29.853Z,1009.67
2017-07-07T21:20:25.344Z,1009.74
2017-07-07T21:25:21.073Z,1009.79
2017-07-07T21:30:16.867Z,1009.77
2017-07-07T21:35:12.727Z,1009.74
2017-07-07T21:40:08.582Z,1009.64
2017-07-07T21:45:04.396Z,1009.58
2017-07-07T21:50:00.879Z,1009.54
2017-07-07T21:54:57.339Z,1009.60
2017-07-07T21:59:54.225Z,1009.50
2017-07-07T22:04:51.095Z,1009.53
2017-07-07T22:09:46.669Z,1009.55
2017-07-07T22:14:42.894Z,1009.69
2017-07-07T22:19:38.677Z,1009.76
2017-07-07T22:24:34.759Z,1009.85
2017-07-07T22:29:30.655Z,1009.73
2017-07-07T22:34:26.707Z,1009.74
2017-07-07T22:39:23.198Z,1009.71
2017-07-07T22:44:20.181Z,1009.72
2017-07-07T22:49:15.669Z,1009.76
2017-07-07T22:54:12.777Z,1009.80
2017-07-07T22:59:09.320Z,1009.74
2017-07-07T23:04:05.209Z,1009.75
2017-07-07T23:09:01.457Z,1009.66
2017-07-07T23:13:57.230Z,1009.79
2017-07-07T23:18:53.273Z,1009.76
2017-07-07T23:23:50.008Z,1009.65
2017-07-07T23:28:45.501Z,1009.64
2017-07-07T23:33:41.177Z,1009.75
2017-07-07T23:38:38.135Z,1009.75
2017-07-07T23:43:33.572Z,1009.64
2017-07-07T23:48:29.837Z,1009.65
2017-07-07T23:53:25.692Z,1009.75
2017-07-07T23:58:21.952Z,1009.71
